sensor_id;sensor_type;location;lat;lon;timestamp;P1;durP1;ratioP1;P2;durP2;ratioP2
70532;SDS011;58088;51.186;17.130;2023-07-31T00:01:57;5.70;;;2.30;;
70532;SDS011;58088;51.186;17.130;2023-07-31T00:04:24;5.50;;;1.90;;
70532;SDS011;58088;51.186;17.130;2023-07-31T00:06:50;3.80;;;1.80;;
70532;SDS011;58088;51.186;17.130;2023-07-31T00:09:16;5.70;;;1.80;;
70532;SDS011;58088;51.186;17.130;2023-07-31T00:11:42;5.20;;;2.10;;
70532;SDS011;58088;51.186;17.130;2023-07-31T00:14:09;5.30;;;2.10;;
70532;SDS011;58088;51.186;17.130;2023-07-31T00:16:35;7.90;;;2.20;;
70532;SDS011;58088;51.186;17.130;2023-07-31T00:19:01;5.70;;;2.00;;
70532;SDS011;58088;51.186;17.130;2023-07-31T00:21:27;5.10;;;2.10;;
70532;SDS011;58088;51.186;17.130;2023-07-31T00:23:54;7.00;;;2.50;;
70532;SDS011;58088;51.186;17.130;2023-07-31T00:26:20;5.90;;;1.90;;
70532;SDS011;58088;51.186;17.130;2023-07-31T00:28:46;4.60;;;2.30;;
70532;SDS011;58088;51.186;17.130;2023-07-31T00:31:15;8.20;;;2.30;;
70532;SDS011;58088;51.186;17.130;2023-07-31T00:33:41;7.10;;;2.00;;
70532;SDS011;58088;51.186;17.130;2023-07-31T00:36:07;4.90;;;2.30;;
70532;SDS011;58088;51.186;17.130;2023-07-31T00:38:33;5.00;;;2.70;;
70532;SDS011;58088;51.186;17.130;2023-07-31T00:40:59;5.80;;;2.30;;
70532;SDS011;58088;51.186;17.130;2023-07-31T00:43:25;5.30;;;2.00;;
70532;SDS011;58088;51.186;17.130;2023-07-31T00:45:52;5.30;;;2.10;;
70532;SDS011;58088;51.186;17.130;2023-07-31T00:48:18;6.20;;;2.40;;
70532;SDS011;58088;51.186;17.130;2023-07-31T00:50:45;5.40;;;2.30;;
70532;SDS011;58088;51.186;17.130;2023-07-31T00:53:15;5.30;;;2.70;;
70532;SDS011;58088;51.186;17.130;2023-07-31T00:55:43;6.70;;;2.50;;
70532;SDS011;58088;51.186;17.130;2023-07-31T00:58:12;5.80;;;2.40;;
70532;SDS011;58088;51.186;17.130;2023-07-31T01:00:39;8.50;;;2.20;;
70532;SDS011;58088;51.186;17.130;2023-07-31T01:03:06;5.90;;;2.40;;
70532;SDS011;58088;51.186;17.130;2023-07-31T01:11:30;4.30;;;2.20;;
70532;SDS011;58088;51.186;17.130;2023-07-31T01:13:59;7.10;;;2.40;;
70532;SDS011;58088;51.186;17.130;2023-07-31T01:16:26;6.00;;;2.00;;
70532;SDS011;58088;51.186;17.130;2023-07-31T01:18:53;4.30;;;2.10;;
70532;SDS011;58088;51.186;17.130;2023-07-31T01:21:36;5.00;;;2.30;;
70532;SDS011;58088;51.186;17.130;2023-07-31T01:24:54;5.50;;;2.30;;
70532;SDS011;58088;51.186;17.130;2023-07-31T01:27:25;7.50;;;2.50;;
70532;SDS011;58088;51.186;17.130;2023-07-31T01:30:02;6.40;;;2.40;;
70532;SDS011;58088;51.186;17.130;2023-07-31T01:32:41;9.80;;;3.30;;
70532;SDS011;58088;51.186;17.130;2023-07-31T01:35:08;4.60;;;2.10;;
70532;SDS011;58088;51.186;17.130;2023-07-31T01:37:35;5.30;;;2.20;;
70532;SDS011;58088;51.186;17.130;2023-07-31T01:40:02;7.00;;;2.80;;
70532;SDS011;58088;51.186;17.130;2023-07-31T01:42:29;4.00;;;1.90;;
70532;SDS011;58088;51.186;17.130;2023-07-31T01:44:56;7.30;;;2.20;;
70532;SDS011;58088;51.186;17.130;2023-07-31T01:47:23;5.80;;;2.40;;
70532;SDS011;58088;51.186;17.130;2023-07-31T01:49:49;6.90;;;2.50;;
70532;SDS011;58088;51.186;17.130;2023-07-31T01:52:15;4.70;;;2.20;;
70532;SDS011;58088;51.186;17.130;2023-07-31T01:54:42;6.10;;;2.20;;
70532;SDS011;58088;51.186;17.130;2023-07-31T01:57:08;6.60;;;2.00;;
70532;SDS011;58088;51.186;17.130;2023-07-31T01:59:34;7.10;;;2.10;;
70532;SDS011;58088;51.186;17.130;2023-07-31T02:02:12;7.60;;;2.50;;
70532;SDS011;58088;51.186;17.130;2023-07-31T02:04:57;5.20;;;1.90;;
70532;SDS011;58088;51.186;17.130;2023-07-31T02:07:31;3.80;;;1.90;;
70532;SDS011;58088;51.186;17.130;2023-07-31T02:09:57;4.90;;;2.10;;
70532;SDS011;58088;51.186;17.130;2023-07-31T02:12:24;4.80;;;1.80;;
70532;SDS011;58088;51.186;17.130;2023-07-31T02:14:51;6.40;;;2.20;;
70532;SDS011;58088;51.186;17.130;2023-07-31T02:17:17;6.40;;;2.40;;
70532;SDS011;58088;51.186;17.130;2023-07-31T02:19:43;6.80;;;2.40;;
70532;SDS011;58088;51.186;17.130;2023-07-31T02:22:09;6.70;;;2.20;;
70532;SDS011;58088;51.186;17.130;2023-07-31T02:24:35;7.60;;;2.30;;
70532;SDS011;58088;51.186;17.130;2023-07-31T02:27:01;9.70;;;2.60;;
70532;SDS011;58088;51.186;17.130;2023-07-31T02:29:28;5.30;;;2.80;;
70532;SDS011;58088;51.186;17.130;2023-07-31T02:31:54;8.20;;;2.50;;
70532;SDS011;58088;51.186;17.130;2023-07-31T02:34:21;7.70;;;2.70;;
70532;SDS011;58088;51.186;17.130;2023-07-31T02:36:47;7.20;;;2.30;;
70532;SDS011;58088;51.186;17.130;2023-07-31T02:39:13;6.50;;;2.40;;
70532;SDS011;58088;51.186;17.130;2023-07-31T02:41:39;9.10;;;2.40;;
70532;SDS011;58088;51.186;17.130;2023-07-31T02:44:05;5.30;;;2.50;;
70532;SDS011;58088;51.186;17.130;2023-07-31T02:46:31;6.40;;;2.40;;
70532;SDS011;58088;51.186;17.130;2023-07-31T02:48:57;6.20;;;2.40;;
70532;SDS011;58088;51.186;17.130;2023-07-31T02:51:23;6.70;;;2.30;;
70532;SDS011;58088;51.186;17.130;2023-07-31T02:53:50;6.60;;;2.30;;
70532;SDS011;58088;51.186;17.130;2023-07-31T02:56:16;7.80;;;2.40;;
70532;SDS011;58088;51.186;17.130;2023-07-31T02:58:42;6.30;;;2.20;;
70532;SDS011;58088;51.186;17.130;2023-07-31T03:01:08;7.00;;;2.50;;
70532;SDS011;58088;51.186;17.130;2023-07-31T03:03:34;6.60;;;1.90;;
70532;SDS011;58088;51.186;17.130;2023-07-31T03:06:01;7.20;;;2.10;;
70532;SDS011;58088;51.186;17.130;2023-07-31T03:08:28;7.40;;;2.60;;
70532;SDS011;58088;51.186;17.130;2023-07-31T03:10:54;7.30;;;2.30;;
70532;SDS011;58088;51.186;17.130;2023-07-31T03:13:21;7.20;;;2.10;;
70532;SDS011;58088;51.186;17.130;2023-07-31T03:15:48;7.10;;;2.30;;
70532;SDS011;58088;51.186;17.130;2023-07-31T03:18:14;5.40;;;2.10;;
70532;SDS011;58088;51.186;17.130;2023-07-31T03:20:44;6.30;;;2.40;;
70532;SDS011;58088;51.186;17.130;2023-07-31T03:23:10;4.50;;;2.10;;
70532;SDS011;58088;51.186;17.130;2023-07-31T03:25:37;9.30;;;2.40;;
70532;SDS011;58088;51.186;17.130;2023-07-31T03:28:03;4.50;;;2.10;;
70532;SDS011;58088;51.186;17.130;2023-07-31T03:30:30;6.70;;;2.20;;
70532;SDS011;58088;51.186;17.130;2023-07-31T03:32:57;6.70;;;2.40;;
70532;SDS011;58088;51.186;17.130;2023-07-31T03:35:23;5.80;;;2.50;;
70532;SDS011;58088;51.186;17.130;2023-07-31T03:37:50;8.20;;;2.30;;
70532;SDS011;58088;51.186;17.130;2023-07-31T03:40:16;5.30;;;2.30;;
70532;SDS011;58088;51.186;17.130;2023-07-31T03:42:42;8.20;;;2.90;;
70532;SDS011;58088;51.186;17.130;2023-07-31T03:45:10;8.00;;;2.80;;
70532;SDS011;58088;51.186;17.130;2023-07-31T03:47:36;6.30;;;2.40;;
70532;SDS011;58088;51.186;17.130;2023-07-31T03:50:03;5.60;;;2.50;;
70532;SDS011;58088;51.186;17.130;2023-07-31T03:52:29;9.20;;;2.90;;
70532;SDS011;58088;51.186;17.130;2023-07-31T03:54:56;10.80;;;3.20;;
70532;SDS011;58088;51.186;17.130;2023-07-31T03:57:22;6.50;;;2.50;;
70532;SDS011;58088;51.186;17.130;2023-07-31T03:59:49;7.30;;;2.80;;
70532;SDS011;58088;51.186;17.130;2023-07-31T04:02:15;6.70;;;2.60;;
70532;SDS011;58088;51.186;17.130;2023-07-31T04:04:44;8.90;;;2.70;;
70532;SDS011;58088;51.186;17.130;2023-07-31T04:07:11;8.40;;;2.60;;
70532;SDS011;58088;51.186;17.130;2023-07-31T04:09:38;6.30;;;2.60;;
70532;SDS011;58088;51.186;17.130;2023-07-31T04:12:04;6.00;;;2.30;;
70532;SDS011;58088;51.186;17.130;2023-07-31T04:14:31;9.10;;;3.20;;
70532;SDS011;58088;51.186;17.130;2023-07-31T04:16:57;8.40;;;2.50;;
70532;SDS011;58088;51.186;17.130;2023-07-31T04:19:24;5.60;;;2.50;;
70532;SDS011;58088;51.186;17.130;2023-07-31T04:21:50;9.50;;;2.80;;
70532;SDS011;58088;51.186;17.130;2023-07-31T04:24:17;5.50;;;2.40;;
70532;SDS011;58088;51.186;17.130;2023-07-31T04:26:53;9.20;;;2.50;;
70532;SDS011;58088;51.186;17.130;2023-07-31T04:29:22;7.20;;;2.40;;
70532;SDS011;58088;51.186;17.130;2023-07-31T04:31:49;7.00;;;2.40;;
70532;SDS011;58088;51.186;17.130;2023-07-31T04:34:16;7.00;;;2.10;;
70532;SDS011;58088;51.186;17.130;2023-07-31T04:36:42;8.50;;;2.20;;
70532;SDS011;58088;51.186;17.130;2023-07-31T04:39:08;11.80;;;2.40;;
70532;SDS011;58088;51.186;17.130;2023-07-31T04:41:35;4.90;;;2.40;;
70532;SDS011;58088;51.186;17.130;2023-07-31T04:44:01;8.20;;;2.50;;
70532;SDS011;58088;51.186;17.130;2023-07-31T04:46:29;10.20;;;2.70;;
70532;SDS011;58088;51.186;17.130;2023-07-31T04:48:56;6.20;;;2.50;;
70532;SDS011;58088;51.186;17.130;2023-07-31T04:51:23;8.70;;;2.40;;
70532;SDS011;58088;51.186;17.130;2023-07-31T04:53:49;8.40;;;2.50;;
70532;SDS011;58088;51.186;17.130;2023-07-31T04:56:16;9.00;;;2.30;;
70532;SDS011;58088;51.186;17.130;2023-07-31T04:58:42;10.40;;;2.80;;
70532;SDS011;58088;51.186;17.130;2023-07-31T05:01:08;6.60;;;2.50;;
70532;SDS011;58088;51.186;17.130;2023-07-31T05:03:34;8.30;;;2.50;;
70532;SDS011;58088;51.186;17.130;2023-07-31T05:06:01;9.10;;;2.60;;
70532;SDS011;58088;51.186;17.130;2023-07-31T05:08:33;6.70;;;2.40;;
70532;SDS011;58088;51.186;17.130;2023-07-31T05:11:00;8.40;;;2.50;;
70532;SDS011;58088;51.186;17.130;2023-07-31T05:13:27;8.40;;;2.40;;
70532;SDS011;58088;51.186;17.130;2023-07-31T05:15:53;10.10;;;2.30;;
70532;SDS011;58088;51.186;17.130;2023-07-31T05:18:19;8.10;;;2.50;;
70532;SDS011;58088;51.186;17.130;2023-07-31T05:20:46;5.40;;;2.30;;
70532;SDS011;58088;51.186;17.130;2023-07-31T05:23:12;5.20;;;2.20;;
70532;SDS011;58088;51.186;17.130;2023-07-31T05:25:39;6.30;;;2.50;;
70532;SDS011;58088;51.186;17.130;2023-07-31T05:28:05;6.00;;;2.30;;
70532;SDS011;58088;51.186;17.130;2023-07-31T05:30:31;6.70;;;2.20;;
70532;SDS011;58088;51.186;17.130;2023-07-31T05:32:58;7.90;;;2.60;;
70532;SDS011;58088;51.186;17.130;2023-07-31T05:35:24;5.80;;;2.30;;
70532;SDS011;58088;51.186;17.130;2023-07-31T05:37:50;8.20;;;1.90;;
70532;SDS011;58088;51.186;17.130;2023-07-31T05:40:16;11.00;;;2.40;;
70532;SDS011;58088;51.186;17.130;2023-07-31T05:42:43;7.50;;;2.50;;
70532;SDS011;58088;51.186;17.130;2023-07-31T05:45:09;4.50;;;1.90;;
70532;SDS011;58088;51.186;17.130;2023-07-31T05:47:36;6.60;;;1.80;;
70532;SDS011;58088;51.186;17.130;2023-07-31T05:50:02;6.40;;;2.00;;
70532;SDS011;58088;51.186;17.130;2023-07-31T05:52:28;7.50;;;2.30;;
70532;SDS011;58088;51.186;17.130;2023-07-31T05:54:55;6.80;;;2.00;;
70532;SDS011;58088;51.186;17.130;2023-07-31T05:57:21;6.00;;;2.00;;
70532;SDS011;58088;51.186;17.130;2023-07-31T05:59:47;5.90;;;2.30;;
70532;SDS011;58088;51.186;17.130;2023-07-31T06:02:16;8.60;;;2.40;;
70532;SDS011;58088;51.186;17.130;2023-07-31T06:04:45;6.90;;;2.40;;
70532;SDS011;58088;51.186;17.130;2023-07-31T06:07:13;7.10;;;2.50;;
70532;SDS011;58088;51.186;17.130;2023-07-31T06:09:39;5.70;;;2.30;;
70532;SDS011;58088;51.186;17.130;2023-07-31T06:12:06;8.50;;;2.80;;
70532;SDS011;58088;51.186;17.130;2023-07-31T06:14:38;8.70;;;2.50;;
70532;SDS011;58088;51.186;17.130;2023-07-31T06:17:06;7.30;;;2.30;;
70532;SDS011;58088;51.186;17.130;2023-07-31T06:19:33;7.40;;;2.20;;
70532;SDS011;58088;51.186;17.130;2023-07-31T06:22:00;8.70;;;2.50;;
70532;SDS011;58088;51.186;17.130;2023-07-31T06:24:29;5.60;;;2.30;;
70532;SDS011;58088;51.186;17.130;2023-07-31T06:26:57;8.00;;;2.50;;
70532;SDS011;58088;51.186;17.130;2023-07-31T06:29:24;10.60;;;2.10;;
70532;SDS011;58088;51.186;17.130;2023-07-31T06:31:51;6.20;;;2.30;;
70532;SDS011;58088;51.186;17.130;2023-07-31T06:34:17;4.70;;;2.20;;
70532;SDS011;58088;51.186;17.130;2023-07-31T06:36:44;5.40;;;1.70;;
70532;SDS011;58088;51.186;17.130;2023-07-31T06:39:11;4.40;;;1.70;;
70532;SDS011;58088;51.186;17.130;2023-07-31T06:41:39;7.40;;;2.30;;
70532;SDS011;58088;51.186;17.130;2023-07-31T06:44:08;6.20;;;1.70;;
70532;SDS011;58088;51.186;17.130;2023-07-31T06:46:39;4.70;;;1.70;;
70532;SDS011;58088;51.186;17.130;2023-07-31T06:49:06;4.30;;;1.80;;
70532;SDS011;58088;51.186;17.130;2023-07-31T06:51:32;5.30;;;1.60;;
70532;SDS011;58088;51.186;17.130;2023-07-31T06:53:59;8.10;;;1.90;;
70532;SDS011;58088;51.186;17.130;2023-07-31T06:56:25;8.00;;;2.10;;
70532;SDS011;58088;51.186;17.130;2023-07-31T06:58:52;6.00;;;1.70;;
70532;SDS011;58088;51.186;17.130;2023-07-31T07:01:18;6.20;;;1.80;;
70532;SDS011;58088;51.186;17.130;2023-07-31T07:03:44;3.90;;;1.70;;
70532;SDS011;58088;51.186;17.130;2023-07-31T07:06:17;5.30;;;1.70;;
70532;SDS011;58088;51.186;17.130;2023-07-31T07:08:43;5.80;;;1.70;;
70532;SDS011;58088;51.186;17.130;2023-07-31T07:11:10;4.10;;;1.60;;
70532;SDS011;58088;51.186;17.130;2023-07-31T07:13:36;4.50;;;1.70;;
70532;SDS011;58088;51.186;17.130;2023-07-31T07:16:02;4.90;;;1.60;;
70532;SDS011;58088;51.186;17.130;2023-07-31T07:18:29;8.00;;;2.20;;
70532;SDS011;58088;51.186;17.130;2023-07-31T07:20:55;6.20;;;2.00;;
70532;SDS011;58088;51.186;17.130;2023-07-31T07:23:24;4.60;;;1.60;;
70532;SDS011;58088;51.186;17.130;2023-07-31T07:25:50;5.10;;;1.70;;
70532;SDS011;58088;51.186;17.130;2023-07-31T07:28:17;3.90;;;1.50;;
70532;SDS011;58088;51.186;17.130;2023-07-31T07:30:43;4.40;;;1.50;;
70532;SDS011;58088;51.186;17.130;2023-07-31T07:33:09;6.10;;;1.50;;
70532;SDS011;58088;51.186;17.130;2023-07-31T07:35:36;5.50;;;1.50;;
70532;SDS011;58088;51.186;17.130;2023-07-31T07:38:02;7.00;;;1.70;;
70532;SDS011;58088;51.186;17.130;2023-07-31T07:40:29;4.60;;;1.50;;
70532;SDS011;58088;51.186;17.130;2023-07-31T07:42:56;9.10;;;1.80;;
70532;SDS011;58088;51.186;17.130;2023-07-31T07:45:22;5.60;;;1.60;;
70532;SDS011;58088;51.186;17.130;2023-07-31T07:47:48;6.80;;;1.90;;
70532;SDS011;58088;51.186;17.130;2023-07-31T07:50:17;5.10;;;1.70;;
70532;SDS011;58088;51.186;17.130;2023-07-31T07:52:43;3.60;;;1.40;;
70532;SDS011;58088;51.186;17.130;2023-07-31T07:55:10;6.60;;;1.20;;
70532;SDS011;58088;51.186;17.130;2023-07-31T07:57:36;4.40;;;1.40;;
70532;SDS011;58088;51.186;17.130;2023-07-31T08:00:02;5.90;;;1.60;;
70532;SDS011;58088;51.186;17.130;2023-07-31T08:02:47;3.90;;;1.80;;
70532;SDS011;58088;51.186;17.130;2023-07-31T08:05:13;5.70;;;1.50;;
70532;SDS011;58088;51.186;17.130;2023-07-31T08:07:40;5.30;;;1.60;;
70532;SDS011;58088;51.186;17.130;2023-07-31T08:10:06;6.80;;;1.50;;
70532;SDS011;58088;51.186;17.130;2023-07-31T08:12:32;5.90;;;1.40;;
70532;SDS011;58088;51.186;17.130;2023-07-31T08:14:59;6.90;;;1.50;;
70532;SDS011;58088;51.186;17.130;2023-07-31T08:17:25;6.20;;;1.70;;
70532;SDS011;58088;51.186;17.130;2023-07-31T08:19:52;5.80;;;1.50;;
70532;SDS011;58088;51.186;17.130;2023-07-31T08:22:18;5.90;;;1.40;;
70532;SDS011;58088;51.186;17.130;2023-07-31T08:24:44;5.10;;;1.50;;
70532;SDS011;58088;51.186;17.130;2023-07-31T08:27:10;4.30;;;1.70;;
70532;SDS011;58088;51.186;17.130;2023-07-31T08:29:37;5.50;;;1.60;;
70532;SDS011;58088;51.186;17.130;2023-07-31T08:32:03;4.40;;;1.50;;
70532;SDS011;58088;51.186;17.130;2023-07-31T08:34:29;3.30;;;1.30;;
70532;SDS011;58088;51.186;17.130;2023-07-31T08:36:55;5.90;;;1.60;;
70532;SDS011;58088;51.186;17.130;2023-07-31T08:39:22;6.10;;;1.50;;
70532;SDS011;58088;51.186;17.130;2023-07-31T08:41:48;3.30;;;1.10;;
70532;SDS011;58088;51.186;17.130;2023-07-31T08:44:15;4.40;;;1.40;;
70532;SDS011;58088;51.186;17.130;2023-07-31T08:46:42;4.60;;;1.40;;
70532;SDS011;58088;51.186;17.130;2023-07-31T08:49:10;4.40;;;1.50;;
70532;SDS011;58088;51.186;17.130;2023-07-31T08:51:37;3.80;;;1.50;;
70532;SDS011;58088;51.186;17.130;2023-07-31T08:54:03;4.20;;;1.40;;
70532;SDS011;58088;51.186;17.130;2023-07-31T08:56:32;4.50;;;1.40;;
70532;SDS011;58088;51.186;17.130;2023-07-31T08:59:02;4.50;;;1.60;;
70532;SDS011;58088;51.186;17.130;2023-07-31T09:01:33;5.10;;;1.50;;
70532;SDS011;58088;51.186;17.130;2023-07-31T09:04:04;9.80;;;1.80;;
70532;SDS011;58088;51.186;17.130;2023-07-31T09:06:32;3.60;;;1.30;;
70532;SDS011;58088;51.186;17.130;2023-07-31T09:09:00;3.90;;;1.10;;
70532;SDS011;58088;51.186;17.130;2023-07-31T09:11:26;4.70;;;1.70;;
70532;SDS011;58088;51.186;17.130;2023-07-31T09:13:57;6.20;;;1.50;;
70532;SDS011;58088;51.186;17.130;2023-07-31T09:16:32;4.20;;;1.40;;
70532;SDS011;58088;51.186;17.130;2023-07-31T09:18:58;4.60;;;1.50;;
70532;SDS011;58088;51.186;17.130;2023-07-31T09:21:28;5.50;;;1.50;;
70532;SDS011;58088;51.186;17.130;2023-07-31T09:23:54;7.60;;;1.60;;
70532;SDS011;58088;51.186;17.130;2023-07-31T09:26:36;5.30;;;1.20;;
70532;SDS011;58088;51.186;17.130;2023-07-31T09:29:07;4.70;;;1.50;;
70532;SDS011;58088;51.186;17.130;2023-07-31T09:31:44;3.90;;;1.30;;
70532;SDS011;58088;51.186;17.130;2023-07-31T09:34:11;4.60;;;1.50;;
70532;SDS011;58088;51.186;17.130;2023-07-31T09:36:50;5.40;;;1.90;;
70532;SDS011;58088;51.186;17.130;2023-07-31T09:39:18;4.40;;;1.80;;
70532;SDS011;58088;51.186;17.130;2023-07-31T09:41:54;5.30;;;1.80;;
70532;SDS011;58088;51.186;17.130;2023-07-31T09:44:21;6.90;;;2.30;;
70532;SDS011;58088;51.186;17.130;2023-07-31T09:46:48;5.20;;;2.00;;
70532;SDS011;58088;51.186;17.130;2023-07-31T09:49:15;6.10;;;2.30;;
70532;SDS011;58088;51.186;17.130;2023-07-31T09:51:42;4.60;;;2.20;;
70532;SDS011;58088;51.186;17.130;2023-07-31T09:54:12;4.80;;;2.10;;
70532;SDS011;58088;51.186;17.130;2023-07-31T09:56:42;6.90;;;2.20;;
70532;SDS011;58088;51.186;17.130;2023-07-31T09:59:12;8.10;;;2.50;;
70532;SDS011;58088;51.186;17.130;2023-07-31T10:01:40;7.20;;;2.50;;
70532;SDS011;58088;51.186;17.130;2023-07-31T10:04:09;8.30;;;2.30;;
70532;SDS011;58088;51.186;17.130;2023-07-31T10:06:37;6.00;;;2.20;;
70532;SDS011;58088;51.186;17.130;2023-07-31T10:09:09;8.90;;;2.50;;
70532;SDS011;58088;51.186;17.130;2023-07-31T10:11:47;6.70;;;2.50;;
70532;SDS011;58088;51.186;17.130;2023-07-31T10:14:22;7.10;;;2.40;;
70532;SDS011;58088;51.186;17.130;2023-07-31T10:16:50;7.80;;;2.10;;
70532;SDS011;58088;51.186;17.130;2023-07-31T10:19:19;6.10;;;2.30;;
70532;SDS011;58088;51.186;17.130;2023-07-31T10:21:48;5.10;;;1.90;;
70532;SDS011;58088;51.186;17.130;2023-07-31T10:24:16;6.60;;;2.00;;
70532;SDS011;58088;51.186;17.130;2023-07-31T10:26:45;6.30;;;2.00;;
70532;SDS011;58088;51.186;17.130;2023-07-31T10:29:16;4.20;;;1.90;;
70532;SDS011;58088;51.186;17.130;2023-07-31T10:31:44;4.60;;;1.90;;
70532;SDS011;58088;51.186;17.130;2023-07-31T10:34:12;4.70;;;1.60;;
70532;SDS011;58088;51.186;17.130;2023-07-31T10:36:39;3.70;;;1.50;;
70532;SDS011;58088;51.186;17.130;2023-07-31T10:39:37;6.60;;;1.50;;
70532;SDS011;58088;51.186;17.130;2023-07-31T10:42:13;3.20;;;1.40;;
70532;SDS011;58088;51.186;17.130;2023-07-31T10:44:46;4.00;;;1.40;;
70532;SDS011;58088;51.186;17.130;2023-07-31T10:47:15;3.60;;;1.50;;
70532;SDS011;58088;51.186;17.130;2023-07-31T10:49:45;4.50;;;1.60;;
70532;SDS011;58088;51.186;17.130;2023-07-31T10:52:12;4.10;;;1.80;;
70532;SDS011;58088;51.186;17.130;2023-07-31T10:54:39;4.20;;;1.60;;
70532;SDS011;58088;51.186;17.130;2023-07-31T10:57:21;14.10;;;2.40;;
70532;SDS011;58088;51.186;17.130;2023-07-31T10:59:49;4.70;;;1.50;;
70532;SDS011;58088;51.186;17.130;2023-07-31T11:02:26;4.20;;;1.80;;
70532;SDS011;58088;51.186;17.130;2023-07-31T11:05:10;5.50;;;1.70;;
70532;SDS011;58088;51.186;17.130;2023-07-31T11:07:50;5.20;;;1.50;;
70532;SDS011;58088;51.186;17.130;2023-07-31T11:10:17;5.50;;;1.60;;
70532;SDS011;58088;51.186;17.130;2023-07-31T11:12:45;6.20;;;1.30;;
70532;SDS011;58088;51.186;17.130;2023-07-31T11:15:12;3.20;;;1.40;;
70532;SDS011;58088;51.186;17.130;2023-07-31T11:17:39;3.50;;;1.60;;
70532;SDS011;58088;51.186;17.130;2023-07-31T11:20:06;3.60;;;1.50;;
70532;SDS011;58088;51.186;17.130;2023-07-31T11:22:36;4.20;;;1.60;;
70532;SDS011;58088;51.186;17.130;2023-07-31T11:25:03;5.80;;;1.60;;
70532;SDS011;58088;51.186;17.130;2023-07-31T11:27:30;7.00;;;1.40;;
70532;SDS011;58088;51.186;17.130;2023-07-31T11:30:01;2.80;;;1.30;;
70532;SDS011;58088;51.186;17.130;2023-07-31T11:32:27;2.90;;;1.10;;
70532;SDS011;58088;51.186;17.130;2023-07-31T11:34:54;4.50;;;1.20;;
70532;SDS011;58088;51.186;17.130;2023-07-31T11:37:21;3.40;;;1.30;;
70532;SDS011;58088;51.186;17.130;2023-07-31T11:40:00;3.60;;;1.30;;
70532;SDS011;58088;51.186;17.130;2023-07-31T11:42:27;4.60;;;1.70;;
70532;SDS011;58088;51.186;17.130;2023-07-31T11:44:53;4.40;;;1.50;;
70532;SDS011;58088;51.186;17.130;2023-07-31T11:47:20;3.90;;;1.60;;
70532;SDS011;58088;51.186;17.130;2023-07-31T11:49:46;5.00;;;1.70;;
70532;SDS011;58088;51.186;17.130;2023-07-31T11:52:15;3.40;;;1.60;;
70532;SDS011;58088;51.186;17.130;2023-07-31T11:54:41;4.00;;;1.50;;
70532;SDS011;58088;51.186;17.130;2023-07-31T11:57:08;4.40;;;1.60;;
70532;SDS011;58088;51.186;17.130;2023-07-31T11:59:37;4.10;;;1.60;;
70532;SDS011;58088;51.186;17.130;2023-07-31T12:02:04;5.50;;;1.70;;
70532;SDS011;58088;51.186;17.130;2023-07-31T12:04:31;3.90;;;1.50;;
70532;SDS011;58088;51.186;17.130;2023-07-31T12:07:00;5.90;;;2.10;;
70532;SDS011;58088;51.186;17.130;2023-07-31T12:09:26;6.30;;;2.00;;
70532;SDS011;58088;51.186;17.130;2023-07-31T12:11:53;5.40;;;2.00;;
70532;SDS011;58088;51.186;17.130;2023-07-31T12:14:29;4.10;;;1.80;;
70532;SDS011;58088;51.186;17.130;2023-07-31T12:17:00;4.00;;;1.70;;
70532;SDS011;58088;51.186;17.130;2023-07-31T12:19:30;4.60;;;1.70;;
70532;SDS011;58088;51.186;17.130;2023-07-31T12:21:57;3.50;;;1.70;;
70532;SDS011;58088;51.186;17.130;2023-07-31T12:24:28;4.70;;;1.80;;
70532;SDS011;58088;51.186;17.130;2023-07-31T12:26:54;3.80;;;1.90;;
70532;SDS011;58088;51.186;17.130;2023-07-31T12:29:21;4.90;;;1.90;;
70532;SDS011;58088;51.186;17.130;2023-07-31T12:31:47;5.20;;;2.20;;
70532;SDS011;58088;51.186;17.130;2023-07-31T12:34:18;5.90;;;1.90;;
70532;SDS011;58088;51.186;17.130;2023-07-31T12:36:47;5.50;;;2.10;;
70532;SDS011;58088;51.186;17.130;2023-07-31T12:39:16;5.90;;;2.00;;
70532;SDS011;58088;51.186;17.130;2023-07-31T12:41:42;5.30;;;2.20;;
70532;SDS011;58088;51.186;17.130;2023-07-31T12:44:08;6.80;;;2.00;;
70532;SDS011;58088;51.186;17.130;2023-07-31T12:46:35;4.60;;;2.10;;
70532;SDS011;58088;51.186;17.130;2023-07-31T12:49:02;4.90;;;1.80;;
70532;SDS011;58088;51.186;17.130;2023-07-31T12:51:28;5.00;;;1.80;;
70532;SDS011;58088;51.186;17.130;2023-07-31T12:53:54;3.60;;;1.70;;
70532;SDS011;58088;51.186;17.130;2023-07-31T12:56:21;5.10;;;1.90;;
70532;SDS011;58088;51.186;17.130;2023-07-31T12:58:47;5.00;;;2.10;;
70532;SDS011;58088;51.186;17.130;2023-07-31T13:01:13;4.60;;;2.10;;
70532;SDS011;58088;51.186;17.130;2023-07-31T13:03:39;4.90;;;2.10;;
70532;SDS011;58088;51.186;17.130;2023-07-31T13:06:06;4.40;;;1.90;;
70532;SDS011;58088;51.186;17.130;2023-07-31T13:08:32;3.30;;;1.80;;
70532;SDS011;58088;51.186;17.130;2023-07-31T13:10:59;5.70;;;2.00;;
70532;SDS011;58088;51.186;17.130;2023-07-31T13:13:25;4.60;;;2.00;;
70532;SDS011;58088;51.186;17.130;2023-07-31T13:15:51;4.60;;;2.00;;
70532;SDS011;58088;51.186;17.130;2023-07-31T13:18:17;4.90;;;2.00;;
70532;SDS011;58088;51.186;17.130;2023-07-31T13:20:44;5.20;;;2.20;;
70532;SDS011;58088;51.186;17.130;2023-07-31T13:23:10;5.20;;;2.00;;
70532;SDS011;58088;51.186;17.130;2023-07-31T13:25:36;3.90;;;2.20;;
70532;SDS011;58088;51.186;17.130;2023-07-31T13:28:02;4.90;;;2.10;;
70532;SDS011;58088;51.186;17.130;2023-07-31T13:30:29;5.10;;;2.20;;
70532;SDS011;58088;51.186;17.130;2023-07-31T13:32:55;5.40;;;2.40;;
70532;SDS011;58088;51.186;17.130;2023-07-31T13:35:21;6.20;;;2.30;;
70532;SDS011;58088;51.186;17.130;2023-07-31T13:37:47;5.50;;;2.50;;
70532;SDS011;58088;51.186;17.130;2023-07-31T13:40:14;5.00;;;2.10;;
70532;SDS011;58088;51.186;17.130;2023-07-31T13:42:40;9.40;;;2.90;;
70532;SDS011;58088;51.186;17.130;2023-07-31T13:45:06;7.20;;;2.50;;
70532;SDS011;58088;51.186;17.130;2023-07-31T13:47:33;5.90;;;2.50;;
70532;SDS011;58088;51.186;17.130;2023-07-31T13:50:00;5.60;;;2.40;;
70532;SDS011;58088;51.186;17.130;2023-07-31T13:52:26;7.20;;;2.40;;
70532;SDS011;58088;51.186;17.130;2023-07-31T13:54:52;4.40;;;2.20;;
70532;SDS011;58088;51.186;17.130;2023-07-31T13:57:18;4.90;;;2.20;;
70532;SDS011;58088;51.186;17.130;2023-07-31T13:59:45;6.40;;;2.70;;
70532;SDS011;58088;51.186;17.130;2023-07-31T14:02:11;5.60;;;2.60;;
70532;SDS011;58088;51.186;17.130;2023-07-31T14:04:37;6.00;;;2.50;;
70532;SDS011;58088;51.186;17.130;2023-07-31T14:07:04;5.30;;;2.60;;
70532;SDS011;58088;51.186;17.130;2023-07-31T14:09:30;7.00;;;2.40;;
70532;SDS011;58088;51.186;17.130;2023-07-31T14:11:56;6.20;;;2.50;;
70532;SDS011;58088;51.186;17.130;2023-07-31T14:14:22;5.00;;;2.40;;
70532;SDS011;58088;51.186;17.130;2023-07-31T14:16:49;5.80;;;2.40;;
70532;SDS011;58088;51.186;17.130;2023-07-31T14:19:15;4.30;;;2.10;;
70532;SDS011;58088;51.186;17.130;2023-07-31T14:21:41;4.80;;;2.30;;
70532;SDS011;58088;51.186;17.130;2023-07-31T14:24:08;6.60;;;2.40;;
70532;SDS011;58088;51.186;17.130;2023-07-31T14:26:34;5.70;;;2.80;;
70532;SDS011;58088;51.186;17.130;2023-07-31T14:29:00;6.50;;;2.80;;
70532;SDS011;58088;51.186;17.130;2023-07-31T14:31:26;5.20;;;2.30;;
70532;SDS011;58088;51.186;17.130;2023-07-31T14:33:53;5.90;;;2.90;;
70532;SDS011;58088;51.186;17.130;2023-07-31T14:36:19;5.70;;;2.60;;
70532;SDS011;58088;51.186;17.130;2023-07-31T14:38:45;6.50;;;2.10;;
70532;SDS011;58088;51.186;17.130;2023-07-31T14:41:12;4.80;;;2.30;;
70532;SDS011;58088;51.186;17.130;2023-07-31T14:43:38;6.50;;;2.50;;